createdAt,value
2022-11-30T00:01:15.936Z,57.30
2022-11-30T00:03:42.689Z,61.22
2022-11-30T00:06:13.551Z,60.35
2022-11-30T00:08:40.319Z,55.20
2022-11-30T00:11:09.892Z,58.08
2022-11-30T00:13:36.808Z,55.78
2022-11-30T00:16:04.073Z,60.70
2022-11-30T00:18:30.931Z,53.72
2022-11-30T00:21:02.187Z,50.85
2022-11-30T00:23:36.717Z,50.17
2022-11-30T00:26:05.591Z,53.20
2022-11-30T00:28:33.899Z,51.85
2022-11-30T00:31:02.687Z,45.97
2022-11-30T00:33:32.159Z,55.65
2022-11-30T00:36:01.355Z,53.17
2022-11-30T00:38:28.328Z,52.90
2022-11-30T00:40:56.679Z,52.65
2022-11-30T00:43:23.867Z,51.30
2022-11-30T00:45:50.781Z,50.78
2022-11-30T00:48:17.581Z,52.03
2022-11-30T00:50:44.346Z,57.30
2022-11-30T00:53:11.078Z,60.67
2022-11-30T00:55:37.813Z,54.45
2022-11-30T00:58:07.127Z,54.20
2022-11-30T01:00:34.074Z,59.53
2022-11-30T01:03:00.866Z,63.08
2022-11-30T01:05:27.626Z,61.15
2022-11-30T01:07:54.653Z,64.13
2022-11-30T01:10:22.969Z,61.35
2022-11-30T01:12:50.265Z,61.88
2022-11-30T01:15:17.060Z,62.75
2022-11-30T01:17:43.829Z,59.97
2022-11-30T01:20:11.081Z,58.15
2022-11-30T01:22:37.988Z,54.78
2022-11-30T01:25:07.606Z,64.38
2022-11-30T01:27:34.324Z,66.68
2022-11-30T01:30:01.185Z,61.75
2022-11-30T01:32:28.194Z,60.63
2022-11-30T01:34:54.910Z,56.83
2022-11-30T01:37:21.731Z,71.20
2022-11-30T01:39:50.138Z,63.10
2022-11-30T01:42:19.621Z,59.80
2022-11-30T01:44:50.859Z,62.30
2022-11-30T01:47:22.345Z,64.15
2022-11-30T01:49:53.470Z,60.17
2022-11-30T01:52:32.823Z,57.38
2022-11-30T01:55:18.599Z,62.13
2022-11-30T01:57:50.608Z,62.92
2022-11-30T02:00:21.414Z,60.95
2022-11-30T02:03:01.044Z,61.97
2022-11-30T02:05:28.292Z,63.75
2022-11-30T02:07:55.941Z,68.72
2022-11-30T02:10:26.908Z,63.25
2022-11-30T02:13:32.538Z,63.65
2022-11-30T02:16:30.848Z,64.18
2022-11-30T02:19:16.356Z,65.40
2022-11-30T02:22:21.305Z,66.53
2022-11-30T02:25:37.447Z,80.75
2022-11-30T02:28:50.280Z,71.53
2022-11-30T02:31:25.394Z,78.35
2022-11-30T02:33:53.561Z,76.55
2022-11-30T02:36:20.981Z,70.35
2022-11-30T02:38:48.092Z,82.85
2022-11-30T02:41:16.705Z,75.57
2022-11-30T02:43:43.996Z,80.43
2022-11-30T02:46:23.433Z,80.10
2022-11-30T02:48:58.854Z,75.43
2022-11-30T02:51:30.792Z,86.93
2022-11-30T02:53:57.790Z,86.70
2022-11-30T02:56:25.928Z,87.13
2022-11-30T02:58:52.745Z,88.20
2022-11-30T03:01:19.545Z,83.00
2022-11-30T03:03:46.272Z,88.70
2022-11-30T03:06:13.025Z,77.78
2022-11-30T03:08:40.096Z,81.50
2022-11-30T03:11:07.058Z,86.65
2022-11-30T03:13:34.539Z,86.88
2022-11-30T03:16:09.435Z,82.63
2022-11-30T03:18:36.917Z,89.70
2022-11-30T03:21:08.398Z,85.22
2022-11-30T03:23:36.069Z,87.85
2022-11-30T03:26:03.428Z,83.78
2022-11-30T03:28:30.170Z,88.40
2022-11-30T03:30:57.722Z,90.05
2022-11-30T03:33:25.263Z,84.38
2022-11-30T03:36:06.830Z,79.35
2022-11-30T03:38:33.745Z,76.05
2022-11-30T03:41:06.094Z,83.85
2022-11-30T03:43:33.218Z,83.03
2022-11-30T03:46:00.883Z,83.03
2022-11-30T03:48:29.030Z,80.97
2022-11-30T03:50:55.775Z,86.82
2022-11-30T03:53:24.402Z,78.00
2022-11-30T03:55:55.883Z,76.63
2022-11-30T03:58:24.211Z,82.07
2022-11-30T04:00:59.041Z,80.95
2022-11-30T04:03:25.877Z,79.50
2022-11-30T04:05:52.645Z,78.07
2022-11-30T04:08:19.408Z,89.15
2022-11-30T04:10:57.574Z,77.10
2022-11-30T04:13:25.333Z,73.28
2022-11-30T04:15:53.255Z,71.13
2022-11-30T04:18:21.531Z,75.38
2022-11-30T04:20:52.330Z,70.63
2022-11-30T04:23:19.877Z,65.68
2022-11-30T04:25:48.603Z,69.10
2022-11-30T04:28:16.933Z,76.38
2022-11-30T04:30:44.374Z,62.95
2022-11-30T04:33:11.905Z,63.72
2022-11-30T04:35:48.167Z,61.33
2022-11-30T04:38:15.058Z,63.15
2022-11-30T04:40:42.537Z,53.35
2022-11-30T04:43:11.056Z,54.65
2022-11-30T04:45:38.659Z,53.05
2022-11-30T04:48:06.723Z,48.30
2022-11-30T04:50:34.133Z,47.38
2022-11-30T04:53:00.905Z,39.60
2022-11-30T04:55:27.883Z,38.35
2022-11-30T04:57:54.718Z,46.25
2022-11-30T05:00:21.998Z,48.28
2022-11-30T05:02:52.867Z,43.15
2022-11-30T05:05:20.410Z,43.20
2022-11-30T05:07:51.526Z,42.47
2022-11-30T05:10:18.511Z,44.25
2022-11-30T05:12:45.381Z,43.08
2022-11-30T05:15:12.375Z,38.78
2022-11-30T05:17:39.429Z,43.22
2022-11-30T05:20:06.950Z,39.30
2022-11-30T05:22:35.322Z,43.95
2022-11-30T05:25:03.972Z,43.10
2022-11-30T05:27:30.735Z,38.38
2022-11-30T05:29:57.531Z,40.67
2022-11-30T05:32:24.284Z,40.03
2022-11-30T05:34:52.066Z,40.42
2022-11-30T05:37:19.688Z,45.10
2022-11-30T05:39:46.576Z,42.03
2022-11-30T05:42:14.361Z,50.53
2022-11-30T05:44:42.055Z,44.92
2022-11-30T05:47:09.122Z,47.72
2022-11-30T05:49:35.904Z,56.65
2022-11-30T05:52:02.644Z,48.20
2022-11-30T05:54:29.388Z,56.47
2022-11-30T05:56:56.222Z,62.97
2022-11-30T05:59:24.562Z,57.67
2022-11-30T06:01:54.644Z,55.67
2022-11-30T06:04:21.969Z,54.50
2022-11-30T06:06:49.640Z,54.80
2022-11-30T06:09:16.506Z,55.53
2022-11-30T06:11:43.206Z,58.80
2022-11-30T06:14:10.352Z,50.53
2022-11-30T06:16:40.605Z,55.15
2022-11-30T06:19:09.381Z,56.95
2022-11-30T06:21:36.573Z,53.60
2022-11-30T06:24:04.634Z,53.10
2022-11-30T06:26:31.348Z,51.15
2022-11-30T06:28:58.837Z,27.95
2022-11-30T06:31:25.784Z,55.35
2022-11-30T06:33:52.547Z,51.22
2022-11-30T06:36:23.314Z,48.85
2022-11-30T06:38:51.517Z,56.65
2022-11-30T06:41:19.180Z,50.03
2022-11-30T06:43:45.996Z,52.70
2022-11-30T06:46:13.041Z,51.17
2022-11-30T06:48:39.876Z,52.00
2022-11-30T06:51:08.689Z,47.38
2022-11-30T06:53:36.166Z,52.15
2022-11-30T06:56:10.442Z,50.72
2022-11-30T06:58:39.266Z,47.92
2022-11-30T07:01:08.399Z,44.95
2022-11-30T07:03:36.177Z,48.78
2022-11-30T07:06:07.956Z,46.15
2022-11-30T07:08:34.786Z,52.00
2022-11-30T07:11:01.645Z,49.10
2022-11-30T07:13:28.518Z,53.90
2022-11-30T07:15:55.255Z,40.58
2022-11-30T07:18:24.781Z,51.70
2022-11-30T07:20:59.988Z,48.13
2022-11-30T07:23:48.460Z,50.28
2022-11-30T07:26:20.031Z,43.70
2022-11-30T07:28:46.952Z,49.45
2022-11-30T07:31:21.032Z,44.70
2022-11-30T07:36:17.047Z,55.63
2022-11-30T07:38:44.625Z,68.85
2022-11-30T07:41:12.185Z,71.30
2022-11-30T07:43:39.284Z,70.65
2022-11-30T07:46:06.706Z,73.68
2022-11-30T07:48:34.324Z,72.13
2022-11-30T07:51:06.200Z,78.35
2022-11-30T07:53:33.088Z,78.60
2022-11-30T07:56:11.578Z,67.15
2022-11-30T07:58:38.700Z,73.05
2022-11-30T08:01:14.049Z,69.75
2022-11-30T08:03:41.043Z,72.40
2022-11-30T08:06:12.983Z,70.80
2022-11-30T08:08:42.390Z,70.90
2022-11-30T08:11:11.659Z,69.35
2022-11-30T08:13:38.875Z,70.85
2022-11-30T08:16:11.674Z,72.55
2022-11-30T08:18:40.827Z,74.75
2022-11-30T08:21:09.849Z,77.30
2022-11-30T08:23:42.470Z,82.07
2022-11-30T08:26:30.273Z,83.05
2022-11-30T08:28:58.715Z,90.68
2022-11-30T08:31:34.504Z,92.57
2022-11-30T08:34:04.833Z,86.80
2022-11-30T08:36:32.419Z,77.47
2022-11-30T08:39:00.302Z,87.18
2022-11-30T08:41:27.436Z,79.72
2022-11-30T08:43:54.248Z,80.40
2022-11-30T08:49:21.501Z,70.57
2022-11-30T08:54:46.398Z,61.20
2022-11-30T08:57:17.644Z,64.65
2022-11-30T08:59:45.440Z,58.42
2022-11-30T09:02:16.956Z,59.08
2022-11-30T09:04:44.052Z,64.68
2022-11-30T09:07:11.008Z,54.10
2022-11-30T09:09:38.117Z,52.42
2022-11-30T09:12:05.860Z,58.50
2022-11-30T09:14:32.892Z,58.10
2022-11-30T09:17:00.770Z,59.35
2022-11-30T09:19:27.600Z,50.30
2022-11-30T09:21:54.619Z,50.42
2022-11-30T09:24:21.502Z,50.38
2022-11-30T09:26:48.346Z,54.88
2022-11-30T09:29:15.739Z,51.53
2022-11-30T09:31:42.616Z,45.05
2022-11-30T09:34:12.132Z,48.85
2022-11-30T09:36:38.896Z,49.75
2022-11-30T09:39:06.561Z,49.70
2022-11-30T09:41:57.519Z,48.03
2022-11-30T09:45:06.382Z,47.17
2022-11-30T09:47:38.916Z,47.42
2022-11-30T09:50:21.083Z,48.70
2022-11-30T09:52:54.000Z,45.42
2022-11-30T09:55:36.201Z,46.05
2022-11-30T09:58:04.948Z,42.72
2022-11-30T10:00:33.425Z,42.70
2022-11-30T10:03:04.813Z,43.85
2022-11-30T10:05:48.172Z,45.00
2022-11-30T10:08:39.917Z,45.95
2022-11-30T10:11:28.367Z,46.20
2022-11-30T10:14:16.624Z,46.47
2022-11-30T10:16:57.844Z,44.47
2022-11-30T10:19:50.960Z,47.25
2022-11-30T10:22:34.997Z,49.60
2022-11-30T10:25:10.193Z,45.30
2022-11-30T10:27:56.625Z,50.78
2022-11-30T10:30:26.223Z,47.63
2022-11-30T10:32:55.589Z,49.03
2022-11-30T10:35:33.868Z,45.55
2022-11-30T10:38:09.531Z,48.25
2022-11-30T10:41:03.659Z,50.85
2022-11-30T10:43:38.354Z,34.85
2022-11-30T10:46:05.865Z,42.33
2022-11-30T10:48:42.692Z,45.45
2022-11-30T10:51:12.363Z,47.17
2022-11-30T10:53:39.139Z,44.95
2022-11-30T10:56:13.651Z,44.33
2022-11-30T10:58:54.159Z,42.78
2022-11-30T11:01:39.548Z,45.20
2022-11-30T11:04:22.838Z,47.55
2022-11-30T11:06:58.288Z,48.92
2022-11-30T11:09:41.308Z,47.70
2022-11-30T11:12:27.817Z,46.83
2022-11-30T11:15:19.215Z,46.95
2022-11-30T11:17:47.169Z,44.25
2022-11-30T11:20:36.120Z,47.70
2022-11-30T11:23:04.910Z,43.90
2022-11-30T11:25:35.263Z,48.03
2022-11-30T11:28:13.760Z,48.33
2022-11-30T11:30:40.854Z,50.58
2022-11-30T11:33:13.773Z,47.28
2022-11-30T11:35:52.300Z,47.75
2022-11-30T11:38:23.359Z,49.13
2022-11-30T11:41:05.714Z,47.22
2022-11-30T11:43:35.632Z,48.88
2022-11-30T11:46:11.869Z,46.28
2022-11-30T11:48:48.719Z,48.67
2022-11-30T11:51:30.215Z,48.50
2022-11-30T11:54:22.625Z,49.67
2022-11-30T11:56:50.008Z,49.80
2022-11-30T11:59:32.695Z,49.58
2022-11-30T12:02:08.509Z,48.47
2022-11-30T12:04:57.698Z,45.53
2022-11-30T12:07:28.723Z,46.10
2022-11-30T12:10:49.515Z,54.67
2022-11-30T12:15:36.221Z,49.03
2022-11-30T12:18:24.914Z,67.20
2022-11-30T12:21:15.762Z,56.03
2022-11-30T12:24:00.561Z,52.80
2022-11-30T12:26:59.514Z,49.33
2022-11-30T12:30:02.027Z,53.72
2022-11-30T12:32:40.736Z,55.55
2022-11-30T12:35:27.443Z,52.35
2022-11-30T12:38:03.150Z,52.30
2022-11-30T12:40:49.365Z,48.38
2022-11-30T12:43:43.834Z,49.22
2022-11-30T12:46:22.861Z,56.28
2022-11-30T12:48:55.546Z,57.28
2022-11-30T12:51:37.943Z,54.22
2022-11-30T12:54:26.073Z,50.35
2022-11-30T12:56:59.140Z,55.25
2022-11-30T13:00:07.294Z,57.88
2022-11-30T13:03:00.649Z,58.50
2022-11-30T13:05:39.524Z,59.00
2022-11-30T13:08:12.685Z,57.38
2022-11-30T13:10:49.456Z,58.47
2022-11-30T13:13:25.692Z,55.35
2022-11-30T13:15:52.758Z,58.03
2022-11-30T13:18:22.154Z,55.60
2022-11-30T13:21:08.508Z,55.95
2022-11-30T13:23:57.753Z,55.03
2022-11-30T13:26:44.520Z,54.10
2022-11-30T13:29:24.486Z,57.92
2022-11-30T13:32:05.576Z,62.05
2022-11-30T13:34:32.930Z,56.70
2022-11-30T13:37:13.112Z,53.67
2022-11-30T13:39:50.429Z,53.05
2022-11-30T13:42:34.948Z,69.82
2022-11-30T13:45:13.983Z,53.55
2022-11-30T13:47:45.921Z,56.60
2022-11-30T13:50:27.185Z,61.15
2022-11-30T13:53:03.692Z,59.33
2022-11-30T13:55:46.039Z,57.67
2022-11-30T13:58:16.148Z,58.60
2022-11-30T14:01:07.609Z,61.95
2022-11-30T14:03:35.393Z,58.17
2022-11-30T14:06:28.799Z,58.03
2022-11-30T14:08:56.021Z,54.92
2022-11-30T14:11:40.425Z,57.60
2022-11-30T14:17:01.127Z,59.33
2022-11-30T14:19:29.026Z,58.17
2022-11-30T14:21:57.323Z,56.25
2022-11-30T14:24:24.869Z,62.47
2022-11-30T14:26:52.936Z,63.00
2022-11-30T14:29:31.085Z,55.05
2022-11-30T14:32:07.752Z,53.08
2022-11-30T14:34:52.198Z,60.65
2022-11-30T14:39:49.475Z,60.85
2022-11-30T14:42:26.908Z,63.95
2022-11-30T14:44:54.783Z,62.30
2022-11-30T14:47:35.912Z,56.60
2022-11-30T14:50:05.961Z,64.80
2022-11-30T14:52:52.095Z,64.32
2022-11-30T14:55:52.709Z,65.40
2022-11-30T14:58:36.174Z,69.13
2022-11-30T15:01:15.495Z,64.93
2022-11-30T15:03:42.519Z,62.67
2022-11-30T15:06:18.550Z,72.78
2022-11-30T15:08:54.627Z,68.82
2022-11-30T15:11:23.591Z,66.20
2022-11-30T15:14:08.000Z,63.78
2022-11-30T15:19:38.063Z,63.55
2022-11-30T15:22:04.744Z,68.20
2022-11-30T15:24:31.493Z,73.70
2022-11-30T15:27:10.711Z,67.60
2022-11-30T15:29:54.563Z,68.43
2022-11-30T15:32:24.659Z,66.78
2022-11-30T15:34:57.648Z,62.65
2022-11-30T15:37:38.379Z,63.92
2022-11-30T15:40:08.670Z,66.85
2022-11-30T15:42:40.576Z,71.90
2022-11-30T15:45:16.795Z,67.03
2022-11-30T15:47:43.554Z,66.10
2022-11-30T15:50:28.852Z,64.93
2022-11-30T15:53:04.268Z,63.70
2022-11-30T15:55:43.773Z,60.55
2022-11-30T15:58:37.187Z,66.15
2022-11-30T16:01:12.062Z,65.25
2022-11-30T16:04:01.781Z,61.78
2022-11-30T16:06:51.038Z,62.20
2022-11-30T16:09:25.307Z,67.15
2022-11-30T16:11:59.388Z,62.75
2022-11-30T16:16:55.291Z,65.63
2022-11-30T16:19:23.872Z,64.10
2022-11-30T16:21:50.924Z,67.00
2022-11-30T16:24:20.505Z,63.90
2022-11-30T16:26:51.745Z,66.20
2022-11-30T16:29:20.656Z,65.85
2022-11-30T16:31:49.291Z,71.18
2022-11-30T16:34:20.126Z,65.68
2022-11-30T16:36:51.064Z,56.70
2022-11-30T16:39:17.798Z,64.10
2022-11-30T16:41:47.922Z,65.50
2022-11-30T16:44:19.266Z,66.93
2022-11-30T16:46:47.142Z,70.15
2022-11-30T16:49:13.970Z,67.47
2022-11-30T16:51:41.930Z,65.82
2022-11-30T16:54:13.194Z,69.78
2022-11-30T16:56:42.803Z,66.90
2022-11-30T16:59:16.231Z,64.05
2022-11-30T17:01:48.092Z,67.93
2022-11-30T17:04:23.770Z,74.70
2022-11-30T17:06:54.717Z,69.70
2022-11-30T17:09:24.128Z,70.60
2022-11-30T17:11:51.565Z,64.00
2022-11-30T17:14:21.847Z,68.70
2022-11-30T17:16:49.745Z,69.95
2022-11-30T17:19:16.636Z,61.85
2022-11-30T17:21:45.025Z,69.43
2022-11-30T17:24:13.514Z,63.90
2022-11-30T17:26:40.927Z,66.40
2022-11-30T17:29:08.732Z,64.00
2022-11-30T17:31:37.634Z,63.50
2022-11-30T17:34:04.443Z,65.57
2022-11-30T17:36:35.149Z,67.10
2022-11-30T17:39:09.295Z,66.22
2022-11-30T17:41:37.467Z,69.18
2022-11-30T17:44:04.274Z,63.75
2022-11-30T17:46:31.025Z,65.38
2022-11-30T17:48:57.807Z,62.95
2022-11-30T17:51:24.659Z,62.33
2022-11-30T17:53:51.374Z,62.75
2022-11-30T17:56:18.089Z,62.92
2022-11-30T17:58:46.175Z,61.03
2022-11-30T18:01:19.183Z,60.33
2022-11-30T18:03:46.480Z,58.22
2022-11-30T18:06:14.312Z,61.28
2022-11-30T18:08:41.681Z,60.47
2022-11-30T18:11:20.286Z,64.70
2022-11-30T18:13:54.601Z,52.60
2022-11-30T18:16:23.954Z,54.58
2022-11-30T18:18:51.334Z,54.28
2022-11-30T18:21:21.673Z,61.40
2022-11-30T18:23:49.455Z,54.78
2022-11-30T18:26:19.111Z,59.40
2022-11-30T18:28:47.201Z,56.33
2022-11-30T18:31:15.050Z,57.22
2022-11-30T18:33:41.934Z,53.65
2022-11-30T18:36:09.126Z,55.42
2022-11-30T18:38:38.330Z,54.42
2022-11-30T18:41:07.113Z,49.78
2022-11-30T18:43:37.111Z,47.78
2022-11-30T18:46:06.259Z,49.15
2022-11-30T18:48:33.560Z,55.55
2022-11-30T18:51:00.555Z,58.42
2022-11-30T18:53:27.295Z,49.53
2022-11-30T18:55:54.119Z,54.53
2022-11-30T18:58:21.013Z,56.38
2022-11-30T19:00:49.593Z,55.03
2022-11-30T19:03:16.663Z,52.95
2022-11-30T19:05:43.421Z,55.42
2022-11-30T19:08:17.104Z,56.22
2022-11-30T19:10:47.439Z,55.78
2022-11-30T19:13:17.612Z,54.70
2022-11-30T19:15:44.413Z,52.58
2022-11-30T19:18:11.347Z,54.20
2022-11-30T19:20:42.449Z,53.17
2022-11-30T19:23:09.799Z,51.88
2022-11-30T19:25:36.546Z,47.72
2022-11-30T19:28:03.914Z,51.17
2022-11-30T19:30:31.894Z,53.35
2022-11-30T19:32:59.307Z,48.85
2022-11-30T19:35:26.108Z,47.67
2022-11-30T19:37:54.280Z,41.67
2022-11-30T19:40:20.992Z,35.72
2022-11-30T19:42:47.720Z,47.70
2022-11-30T19:45:14.513Z,44.20
2022-11-30T19:47:42.517Z,43.50
2022-11-30T19:50:09.503Z,40.03
2022-11-30T19:52:36.287Z,38.80
2022-11-30T19:55:03.094Z,40.17
2022-11-30T19:57:29.846Z,35.70
2022-11-30T19:59:56.585Z,40.88
2022-11-30T20:02:23.487Z,39.60
2022-11-30T20:04:50.499Z,40.67
2022-11-30T20:07:17.512Z,44.15
2022-11-30T20:09:44.225Z,41.42
2022-11-30T20:12:10.972Z,39.47
2022-11-30T20:14:37.720Z,39.25
2022-11-30T20:17:04.544Z,40.58
2022-11-30T20:19:31.863Z,40.47
2022-11-30T20:22:00.195Z,39.80
2022-11-30T20:24:26.921Z,40.38
2022-11-30T20:26:56.145Z,44.45
2022-11-30T20:29:22.975Z,32.00
2022-11-30T20:31:50.380Z,43.58
2022-11-30T20:34:17.491Z,46.47
2022-11-30T20:36:45.185Z,42.63
2022-11-30T20:39:13.732Z,39.72
2022-11-30T20:41:40.459Z,40.67
2022-11-30T20:44:07.148Z,43.55
2022-11-30T20:46:36.049Z,41.38
2022-11-30T20:49:04.122Z,37.88
2022-11-30T20:51:35.758Z,36.47
2022-11-30T20:54:06.745Z,40.22
2022-11-30T20:56:37.180Z,39.00
2022-11-30T20:59:06.829Z,37.88
2022-11-30T21:01:35.560Z,42.67
2022-11-30T21:04:04.693Z,40.05
2022-11-30T21:06:33.402Z,36.97
2022-11-30T21:09:03.446Z,38.50
2022-11-30T21:11:31.245Z,40.83
2022-11-30T21:13:58.228Z,37.92
2022-11-30T21:16:28.833Z,35.85
2022-11-30T21:19:00.845Z,37.50
2022-11-30T21:21:33.332Z,39.00
2022-11-30T21:24:03.124Z,37.92
2022-11-30T21:26:33.326Z,39.65
2022-11-30T21:29:06.897Z,41.13
2022-11-30T21:31:34.143Z,41.85
2022-11-30T21:34:01.326Z,38.05
2022-11-30T21:36:29.054Z,41.42
2022-11-30T21:39:04.452Z,36.22
2022-11-30T21:41:32.568Z,42.90
2022-11-30T21:43:59.297Z,35.40
2022-11-30T21:46:26.261Z,39.88
2022-11-30T21:48:54.445Z,42.08
2022-11-30T21:51:24.634Z,34.83
2022-11-30T21:53:54.981Z,28.88
2022-11-30T21:56:32.656Z,34.58
2022-11-30T21:59:01.301Z,32.28
2022-11-30T22:01:32.505Z,31.40
2022-11-30T22:04:01.273Z,31.77
2022-11-30T22:06:35.333Z,32.78
2022-11-30T22:09:10.968Z,30.50
2022-11-30T22:11:39.886Z,32.15
2022-11-30T22:14:10.247Z,28.55
2022-11-30T22:16:37.045Z,29.30
2022-11-30T22:19:05.483Z,28.73
2022-11-30T22:21:33.149Z,30.80
2022-11-30T22:24:02.769Z,24.90
2022-11-30T22:26:40.725Z,29.23
2022-11-30T22:29:12.272Z,31.92
2022-11-30T22:31:41.548Z,29.90
2022-11-30T22:34:08.826Z,31.85
2022-11-30T22:36:37.129Z,30.85
2022-11-30T22:39:09.289Z,29.15
2022-11-30T22:41:37.011Z,27.45
2022-11-30T22:44:05.255Z,31.75
2022-11-30T22:46:34.141Z,26.33
2022-11-30T22:49:02.204Z,27.65
2022-11-30T22:51:32.095Z,25.60
2022-11-30T22:53:59.206Z,23.30
2022-11-30T22:56:32.045Z,22.42
2022-11-30T22:59:00.875Z,25.30
2022-11-30T23:01:33.991Z,24.73
2022-11-30T23:04:06.791Z,29.25
2022-11-30T23:06:34.853Z,26.45
2022-11-30T23:09:02.950Z,24.52
2022-11-30T23:11:30.540Z,23.00
2022-11-30T23:13:58.848Z,21.98
2022-11-30T23:16:26.215Z,22.95
2022-11-30T23:18:55.497Z,23.05
2022-11-30T23:21:25.992Z,24.80
2022-11-30T23:23:54.847Z,24.40
2022-11-30T23:26:24.890Z,23.30
2022-11-30T23:28:53.550Z,25.13
2022-11-30T23:31:33.392Z,23.90
2022-11-30T23:34:04.952Z,25.48
2022-11-30T23:36:32.260Z,21.33
2022-11-30T23:39:05.411Z,24.08
2022-11-30T23:41:32.216Z,23.05
2022-11-30T23:43:58.956Z,21.77
2022-11-30T23:46:26.098Z,21.40
2022-11-30T23:48:53.277Z,24.70
2022-11-30T23:51:20.031Z,20.95
2022-11-30T23:53:48.763Z,22.20
2022-11-30T23:56:17.504Z,19.48
2022-11-30T23:58:44.460Z,21.15
